Weather reports worldwide

Advertisment
Malaga,Puerto, Spain (8479): temperature & dewpoint: 16.02.2019 22:00:00 - 22.02.2019 22:00:00 (CET)Malaga,Puerto, Spain (8479): wind speed & gusts: 16.02.2019 22:00:00 - 22.02.2019 22:00:00 (CET)Malaga,Puerto, Spain (8479): wind direction: 16.02.2019 22:00:00 - 22.02.2019 22:00:00 (CET)Malaga,Puerto, Spain (8479): reduced air pressure: 16.02.2019 22:00:00 - 22.02.2019 22:00:00 (CET)Malaga,Puerto, Spain (8479): precipitation: 16.02.2019 22:00:00 - 22.02.2019 22:00:00 (CET)
Date & Time tt [°C] td [°C] ff [km/h] ff [kn] fx [km/h] fx [kn] dd ppp [hPa] rr [mm]
22.02.2019 22:00:00 - - - - - - - - -
22.02.2019 21:00:00 13,9 9,4 4 2 8 5 SSW 1030,9 0,0
22.02.2019 20:00:00 14,0 9,2 3 2 6 4 SE 1030,6 0,0
22.02.2019 19:00:00 14,3 8,9 3 1 7 4 S 1030,2 -
22.02.2019 18:00:00 15,2 8,9 4 2 9 5 SE 1030,3 0,0
22.02.2019 17:00:00 16,5 9,2 5 3 28 15 SSE 1030,6 0,0
22.02.2019 16:00:00 16,4 8,9 6 4 13 7 SSE 1031,0 0,0
22.02.2019 15:00:00 16,3 8,8 9 5 13 7 S 1031,6 0,0
22.02.2019 14:00:00 16,3 8,8 8 5 16 8 S 1031,9 0,0
22.02.2019 13:00:00 15,5 8,5 9 5 15 8 SSE 1032,7 -
22.02.2019 12:00:00 15,5 8,3 8 4 14 8 SE 1033,3 0,0
22.02.2019 11:00:00 14,7 7,7 5 3 10 6 SSE 1033,3 0,0
22.02.2019 10:00:00 13,3 7,5 5 3 13 7 NW 1033,5 0,0
22.02.2019 09:00:00 11,5 6,2 9 5 15 8 NNW 1032,9 0,0
22.02.2019 08:00:00 11,4 6,5 4 2 11 6 NNW 1032,5 0,0
22.02.2019 07:00:00 11,4 6,5 6 4 17 9 N 1032,5 -
22.02.2019 06:00:00 11,2 6,4 9 5 16 9 NNW 1032,7 0,0
22.02.2019 05:00:00 11,3 6,4 7 4 16 9 NNW 1032,3 0,0
22.02.2019 04:00:00 11,7 6,6 9 5 14 8 NNW 1032,5 0,0
22.02.2019 03:00:00 11,9 6,8 7 4 16 9 N 1032,5 0,0
22.02.2019 02:00:00 12,4 7,3 6 3 12 6 N 1032,6 0,0
22.02.2019 01:00:00 13,0 7,9 1 1 13 7 NNW 1032,7 -
22.02.2019 00:00:00 13,7 8,8 5 3 14 7 NNE 1032,8 0,0
21.02.2019 23:00:00 14,5 9,1 10 5 16 9 ENE 1032,6 0,0
21.02.2019 22:00:00 14,5 9,7 9 5 17 9 SE 1032,3 0,0
21.02.2019 21:00:00 14,4 9,4 11 6 18 10 SE 1031,2 0,0
21.02.2019 20:00:00 14,3 9,5 10 5 17 9 SE 1030,6 0,0
21.02.2019 19:00:00 14,4 9,2 9 5 16 8 SE 1030,1 -
21.02.2019 18:00:00 14,5 8,9 11 6 18 10 ESE 1029,5 0,0
21.02.2019 17:00:00 14,8 8,7 12 6 19 11 ESE 1029,6 0,0
21.02.2019 16:00:00 14,7 8,4 13 7 24 13 SE 1029,6 0,0
21.02.2019 15:00:00 14,8 7,8 15 8 25 13 ESE 1029,2 0,0
21.02.2019 14:00:00 15,2 7,3 14 8 23 12 SE 1029,4 0,0
21.02.2019 13:00:00 16,1 7,9 8 5 25 14 ESE 1029,8 -
21.02.2019 12:00:00 16,3 8,3 9 5 29 16 E 1030,0 0,0
21.02.2019 11:00:00 16,0 8,3 8 5 22 12 E 1029,8 0,0
21.02.2019 10:00:00 15,5 8,7 8 4 23 13 E 1029,0 0,0
21.02.2019 09:00:00 14,3 8,5 10 5 24 13 E 1028,7 0,0
21.02.2019 08:00:00 13,1 8,2 7 4 14 8 ENE 1028,2 0,0
21.02.2019 07:00:00 13,2 8,7 6 3 17 9 ENE 1027,7 -
21.02.2019 06:00:00 13,5 9,0 9 5 17 9 E 1027,3 0,0
21.02.2019 05:00:00 13,7 9,4 11 6 24 13 E 1027,0 0,0
21.02.2019 04:00:00 14,0 9,6 14 8 31 17 ESE 1027,1 0,0
21.02.2019 03:00:00 14,0 9,6 16 9 24 13 ESE 1027,2 0,0
21.02.2019 02:00:00 14,1 9,3 13 7 22 12 ESE 1027,3 0,0
21.02.2019 01:00:00 14,1 9,3 14 8 23 12 ESE 1027,4 -
21.02.2019 00:00:00 14,2 9,8 15 8 23 12 ESE 1027,2 0,0
20.02.2019 23:00:00 14,3 9,9 16 9 27 15 SE 1027,2 0,0
20.02.2019 22:00:00 14,1 9,5 15 8 31 17 ESE 1026,7 0,0
20.02.2019 21:00:00 14,4 9,6 14 8 23 13 ESE 1026,2 0,0
20.02.2019 20:00:00 14,3 9,1 10 5 21 12 E 1025,7 0,0
20.02.2019 19:00:00 14,3 8,7 11 6 20 11 ESE 1025,2 -
20.02.2019 18:00:00 14,3 8,0 14 8 21 11 SE 1024,6 0,0
20.02.2019 17:00:00 14,9 7,9 13 7 22 12 ESE 1024,6 0,0
20.02.2019 16:00:00 14,9 7,9 14 8 24 13 SE 1024,5 0,0
20.02.2019 15:00:00 15,0 7,6 14 8 26 14 SE 1024,8 0,0
20.02.2019 14:00:00 16,3 7,8 9 5 24 13 SE 1024,8 0,0
20.02.2019 13:00:00 17,2 8,1 6 3 26 14 ESE 1025,4 -
20.02.2019 12:00:00 16,7 7,6 6 3 26 14 ESE 1025,8 0,0
20.02.2019 11:00:00 15,7 9,2 9 5 25 14 E 1025,4 0,0
20.02.2019 10:00:00 15,5 9,8 6 4 25 14 ESE 1025,0 0,0
20.02.2019 09:00:00 14,4 9,4 13 7 25 14 SE 1024,3 0,0
20.02.2019 08:00:00 14,1 9,3 16 9 22 12 SE 1023,5 0,0
20.02.2019 07:00:00 14,0 9,8 13 7 22 12 SE 1022,7 -
20.02.2019 06:00:00 13,5 10,5 5 3 14 8 E 1022,4 0,4
20.02.2019 05:00:00 13,5 9,4 3 1 9 5 NNW 1022,2 0,0
20.02.2019 04:00:00 13,3 9,4 5 3 9 5 NNW 1022,4 0,0
20.02.2019 03:00:00 12,9 9,4 5 3 13 7 NW 1022,8 0,0
20.02.2019 02:00:00 13,2 9,1 5 3 13 7 NNW 1022,7 0,0
20.02.2019 01:00:00 13,3 8,4 6 3 11 6 N 1022,7 -
20.02.2019 00:00:00 14,2 9,8 4 2 16 8 SSE 1022,5 0,0
19.02.2019 23:00:00 14,1 9,7 6 4 14 7 E 1022,5 0,0
19.02.2019 22:00:00 14,3 10,1 8 5 13 7 ESE 1022,0 0,0
19.02.2019 21:00:00 14,6 10,2 8 5 15 8 SE 1021,5 0,0
19.02.2019 20:00:00 14,6 10,0 6 3 11 6 ESE 1021,1 0,0
19.02.2019 19:00:00 14,7 9,7 9 5 13 7 ESE 1020,4 -
19.02.2019 18:00:00 15,1 9,0 7 4 12 6 SE 1019,6 0,0
19.02.2019 17:00:00 16,0 9,0 6 3 11 6 SSE 1019,6 0,0
19.02.2019 16:00:00 17,3 9,2 5 3 15 8 SSE 1019,8 0,0
19.02.2019 15:00:00 16,9 8,9 9 5 16 9 SSE 1020,2 0,0
19.02.2019 14:00:00 16,3 8,3 11 6 24 13 SSE 1020,9 0,0
19.02.2019 13:00:00 16,4 7,9 15 8 23 12 S 1021,6 -
19.02.2019 12:00:00 16,1 9,1 16 8 24 13 SSW 1021,6 0,0
19.02.2019 11:00:00 16,3 5,9 8 4 19 10 WSW 1021,2 0,0
19.02.2019 10:00:00 14,3 5,9 10 5 18 10 W 1020,9 0,0
19.02.2019 09:00:00 13,1 5,5 7 4 11 6 NNW 1020,6 0,0
19.02.2019 08:00:00 12,4 5,8 6 4 16 9 W 1020,1 0,0
19.02.2019 07:00:00 12,6 6,4 8 4 13 7 WNW 1019,8 -
19.02.2019 06:00:00 12,5 6,8 4 2 10 6 W 1020,0 0,0
19.02.2019 05:00:00 12,6 6,2 8 4 16 9 NW 1020,0 0,0
19.02.2019 04:00:00 12,3 5,9 8 5 15 8 NW 1020,1 0,0
19.02.2019 03:00:00 11,9 5,5 8 5 16 9 NNW 1020,3 0,0
19.02.2019 02:00:00 12,1 5,7 10 5 17 9 N 1020,2 0,0
19.02.2019 01:00:00 12,5 6,1 9 5 18 10 N 1020,2 -
19.02.2019 00:00:00 12,8 5,5 9 5 17 9 N 1019,9 0,0
18.02.2019 23:00:00 13,5 5,7 6 3 13 7 N 1019,9 0,0
18.02.2019 22:00:00 13,9 6,3 6 4 13 7 NNW 1019,5 0,0
18.02.2019 21:00:00 15,2 8,2 5 3 14 8 E 1018,7 0,0
18.02.2019 20:00:00 14,6 7,9 6 3 10 5 NNE 1018,3 0,0
18.02.2019 19:00:00 15,2 8,4 6 3 13 7 S 1017,9 -
18.02.2019 18:00:00 15,5 8,0 8 4 14 8 SSE 1017,5 0,0
18.02.2019 17:00:00 15,7 7,5 9 5 16 9 SSE 1017,5 0,0
18.02.2019 16:00:00 15,4 6,7 12 7 17 9 ESE 1017,4 0,0
18.02.2019 15:00:00 16,5 6,9 3 2 10 5 SE 1018,0 0,0
18.02.2019 14:00:00 16,8 8,5 6 3 16 9 SSW 1018,4 0,0
18.02.2019 13:00:00 18,3 8,0 3 2 10 5 S 1018,8 -
18.02.2019 12:00:00 17,4 8,5 4 2 10 5 S 1019,4 0,0
18.02.2019 11:00:00 16,7 8,4 4 2 8 5 SSE 1019,5 0,0
18.02.2019 10:00:00 13,3 8,2 5 3 13 7 NW 1019,6 0,0
18.02.2019 09:00:00 11,1 7,2 9 5 16 9 NNW 1019,4 0,0
18.02.2019 08:00:00 10,9 7,2 9 5 16 9 N 1019,0 0,0
18.02.2019 07:00:00 10,6 6,6 9 5 16 9 NNW 1019,5 -
18.02.2019 06:00:00 10,9 6,7 9 5 16 9 NNW 1019,5 0,0
18.02.2019 05:00:00 10,6 6,0 8 4 16 8 NNW 1020,2 0,0
18.02.2019 04:00:00 10,7 5,9 10 5 17 9 NNW 1020,6 0,0
18.02.2019 03:00:00 10,9 6,1 12 6 20 11 NNW 1021,0 0,0
18.02.2019 02:00:00 11,1 6,1 9 5 17 9 NNW 1021,4 0,0
18.02.2019 01:00:00 11,4 6,1 9 5 19 11 N 1022,0 -
18.02.2019 00:00:00 11,6 6,3 10 5 19 10 NNW 1022,6 0,0
17.02.2019 23:00:00 12,1 6,8 7 4 14 8 NNW 1022,9 0,0
17.02.2019 22:00:00 12,8 7,7 6 4 11 6 NNW 1022,8 0,0
17.02.2019 21:00:00 13,7 9,0 6 3 12 7 ENE 1022,7 0,0
17.02.2019 20:00:00 14,4 9,4 6 3 13 7 SSE 1022,8 0,0
17.02.2019 19:00:00 14,4 9,2 9 5 16 9 SE 1022,4 -
17.02.2019 18:00:00 15,0 8,7 10 5 18 10 SSE 1022,2 0,0
17.02.2019 17:00:00 15,5 8,5 11 6 19 10 SSE 1022,5 0,0
17.02.2019 16:00:00 17,2 8,6 5 3 16 9 SE 1022,9 0,0
17.02.2019 15:00:00 16,7 8,9 8 4 19 10 ESE 1023,4 0,0
17.02.2019 14:00:00 15,0 8,0 12 6 18 10 ESE 1024,1 0,0
17.02.2019 13:00:00 15,6 8,1 9 5 20 11 ESE 1025,2 -
17.02.2019 12:00:00 15,6 7,9 11 6 19 10 ESE 1025,7 0,0
17.02.2019 11:00:00 15,9 8,4 9 5 21 12 E 1025,7 0,0
17.02.2019 10:00:00 14,6 9,0 13 7 23 12 SE 1025,6 0,0
17.02.2019 09:00:00 14,0 8,8 14 8 26 14 SSE 1025,5 0,0
17.02.2019 08:00:00 13,9 8,7 14 7 20 11 SSE 1024,8 0,0
17.02.2019 07:00:00 13,7 8,8 11 6 16 9 SSE 1024,8 -
17.02.2019 06:00:00 13,6 9,3 8 5 13 7 S 1025,0 0,0
17.02.2019 05:00:00 12,9 8,6 1 0 17 9 N 1024,7 0,0
17.02.2019 04:00:00 12,7 8,4 7 4 13 7 NW 1024,8 0,0
17.02.2019 03:00:00 13,4 9,3 1 1 12 6 NNW 1025,0 0,0
17.02.2019 02:00:00 14,2 10,0 8 4 15 8 SSE 1025,2 0,0
17.02.2019 01:00:00 14,2 10,0 9 5 21 11 SE 1025,5 -
17.02.2019 00:00:00 14,2 10,2 14 8 25 14 ESE 1025,4 0,0
16.02.2019 23:00:00 14,5 10,3 18 10 29 16 ESE 1025,5 0,0
16.02.2019 22:00:00 14,3 9,9 20 11 34 18 ESE 1025,3 0,0

tt = temperature
td = dewpoint
ff = wind speed
fx = gusts
dd = wind direction
ppp = reduced air pressure
rr = precipitation

Next stations